Tucson, AZ (85718)

2:12 PM MST on February 10, 2016 (GMT -0700)
APRSWXNET | | Change Station
CLOSE
Current Station
Personal Weather Station
Location: Tucson, AZ
Elevation: 2893 ft
Nearby Weather Stations

Elev 2893 ft 32.33 °N, 110.91 °W | Updated 27 minutes ago

Clear
Clear
81 °F
Feels Like 79 °F
N
4
Wind Variable Wind from SSE
Gusts 8.0 mph

Today
High -- | Low -- °F
--% Chance of Precip.
Yesterday
High -- | Low -- °F
Precip. -- in
Pressure 30.09 in
Visibility 10.0 miles
Clouds Clear
Heat Index 79 °F
Dew Point 24 °F
Humidity 12%
Rainfall in
Snow Depth Not available.
7:11 AM 6:05 PM
Waxing Crescent, 7% visible
METAR KDMA 102058Z AUTO 10001KT 10SM CLR 26/M10 A3018 RMK AO2 SLP188 T02641102 57024 $
Pressure 30.09 in
Visibility 10.0 miles
Clouds Clear
Heat Index 79 °F
Dew Point 24 °F
Humidity 12%
Rainfall in
Snow Depth Not available.
7:11 AM 6:05 PM
Waxing Crescent, 7% visible
METAR KDMA 102058Z AUTO 10001KT 10SM CLR 26/M10 A3018 RMK AO2 SLP188 T02641102 57024 $

10-Day Weather Forecast

Almanac

Astronomy

Feb. 10, 2016 Rise Set
Actual Time
Civil Twilight
Nautical Twilight
Astronomical Twilight
Moon
Length of Visible Light
Length of Day
Tomorrow will be .
, % of the Moon is Illuminated

Today's Extremes

State Highs State Lows

Community

WunderPhotos

Upload Photos

1,891,949 photos uploaded!

WunderBlog® & News

Nearby

Air Quality

  Air Quality AQ Index Pollutant
Not available.

Snow Depth

Station Depth Elevation

Earthquake Activity

City Distance Mag. Time & Date
Minimum magnitude displayed is 2.5.

Coastal Water Temperatures

Place Temperature

Stations

Nearby Weather Stations

Station Location Temp. Windchill Dew Point Humidity Wind Precip. Elev Updated Type
                   

Watches & Warnings

There are currently no watches in effect.